AirNav   ATP
 
 1003 users online  

0IS2 Northshore Glenbrook Hospital Heliport
Glenview, Illinois, USA

GOING TO GLENVIEW?


FAA INFORMATION EFFECTIVE 09 NOVEMBER 2017

Location

FAA Identifier: 0IS2
Lat/Long: 42-05-36.6900N / 087-51-10.0400W
42-05.611500N / 087-51.167333W
42.0935250 / -87.8527889
(estimated)
Elevation: 675 ft. / 206 m (estimated)
Variation: 00W (1901)
From city: 2 miles W of GLENVIEW, IL
Time zone: UTC -6 (UTC -5 during Daylight Saving Time)
Zip code: 60025

Heliport Operations

Heliport use: Private use. Permission required prior to landing
Activation date: 04/1982
Control tower: no
ARTCC: CHICAGO CENTER
FSS: KANKAKEE FLIGHT SERVICE STATION
Attendance: CONTINUOUS
Wind indicator: yes
Segmented circle: no
Lights: SS-SR

Heliport Communications

WX ASOS at PWK (2.5 nm NW): PHONE 847-465-0291
WX ASOS at ORD (7 nm S): PHONE 773-462-0118
WX AWOS-3 at 06C (13 nm SW): 128.275 ((847) 895-2887)
WX ASOS at MDW (19 nm S): PHONE 773-884-4424
WX ASOS at UGN (20 nm N): PHONE 847-782-0876

Nearby radio navigation aids

VOR radial/distance  VOR name  Freq  Var
ORDr018/6.8CHICAGO O'HARE VOR/DME113.9002E
OBKr152/8.8NORTHBROOK VOR/DME113.0002W
DPAr059/25.3DUPAGE VOR/DME108.4002E
CGTr338/37.2CHICAGO HEIGHTS VORTAC114.2002E
JOTr030/38.9JOLIET VORTAC112.3002E

Heliport Services

Runway Information

Helipad H1

Dimensions: 60 x 60 ft. / 18 x 18 m
Surface: concrete
Runway edge lights: FLD
Latitude: 42-05.611500N
Longitude: 087-51.167333W
Elevation: 675.0 ft.
Traffic pattern: leftleft

Heliport Ownership and Management from official FAA records

Ownership: Privately-owned
Owner: NORTHSHORE UNIVERSITY HEALTHSYSTEM
2650 RIDGE AVE
EVANSTON, IL 60201
Phone 847-570-2000
Manager: SEAN O'GRADY
NORTHSHORE UNIV HEALTHSYS-GLENBROOK, 2100 PFINGSTEN RD
GLENVIEW, IL 60025
Phone 847-657-5600

Instrument Procedures

There are no published instrument procedures at 0IS2.

Some nearby airports with instrument procedures:

KPWK - Chicago Executive Airport (3 nm NW)
KORD - Chicago O'Hare International Airport (7 nm S)
C81 - Campbell Airport (17 nm NW)
KMDW - Chicago Midway International Airport (19 nm S)
KUGN - Waukegan Regional Airport (20 nm N)
 
Loc | Ops | Rwys | IFR | FBO | Links
Com | Nav | Svcs | Stats | Notes


 
Area around 0IS2 (Northshore Glenbrook Hospital Heliport)
 
Road maps at: MapQuest Bing Google
 
Aerial photo
No photo
 
Sectional chart

 
Airport distance calculator
Flying to Northshore Glenbrook Hospital Heliport? Find the distance to fly.

From to 0IS2

Sunrise and sunset
Times for 20-Nov-2017
 Local
(UTC-6)
 Zulu
(UTC)
Morning civil twilight06:1812:18
Sunrise06:4912:49
Sunset16:2522:25
Evening civil twilight16:5622:56

Current date and time
Zulu (UTC)  21-Nov-2017 00:27:49
Local (UTC-6)  20-Nov-2017 18:27:49
 
METAR
KPWK 
3nm NW 
202352Z 20018G27KT 10SM CLR 11/01 A2973 RMK AO2 PK WND 20030/2338 SLP072 T01060011 10117 20100 58008
KORD 
8nm SW 
202351Z 20018G26KT 10SM BKN250 10/01 A2973 RMK AO2 PK WND 19030/2309 SLP071 T01000006 10111 20089 56009
KMDW 
19nm S 
202353Z 19016G27KT 10SM BKN250 09/01 A2976 RMK AO2 PK WND 20029/2334 SLP084 T00890011 10122 20089 56008
KUGN 
19nm N 
202355Z 21019G30KT 10SM CLR 09/01 A2969 RMK AO2 PK WND 21032/2306 SLP059 T00940011 10111 20094 55006
TAF
KORD 
8nm SW 
202059Z 2021/2124 21018G26KT P6SM SCT250 FM210200 21017G24KT P6SM SCT200 WS015/22050KT FM211000 22012KT P6SM BKN150 FM211500 26015G23KT P6SM BKN120 FM211700 30016G23KT P6SM BKN100 FM212200 31012G18KT P6SM SCT040
KMDW 
19nm S 
202059Z 2021/2118 21018G26KT P6SM SCT250 FM210200 21016G24KT P6SM SCT200 WS015/22050KT FM211000 22013KT P6SM BKN150 FM211500 26015G23KT P6SM BKN120 FM211700 30016G23KT P6SM BKN100
NOTAMs
Click for the latest NOTAMs
NOTAMs are issued by the DoD/FAA and will open in a separate window not controlled by AirNav.

 

 
 

Would you like to see your business listed on this page?

 If your business provides an interesting product or service to pilots, flight crews, aircraft, or users of the Northshore Glenbrook Hospital Heliport, you should consider listing it here.  To start the listing process, click on the button below
 
Add a business
 

Other Pages about Northshore Glenbrook Hospital Heliport

Update a link
 
Copyright © AirNav, LLC. All rights reserved. Privacy Policy  Contact